sensor_id;sensor_type;location;lat;lon;timestamp;P1;durP1;ratioP1;P2;durP2;ratioP2
39208;SDS011;24929;51.982;4.664;2023-01-13T00:01:08;11.98;;;3.10;;
39208;SDS011;24929;51.982;4.664;2023-01-13T00:03:35;22.45;;;3.92;;
39208;SDS011;24929;51.982;4.664;2023-01-13T00:06:01;17.83;;;4.97;;
39208;SDS011;24929;51.982;4.664;2023-01-13T00:08:26;23.77;;;5.43;;
39208;SDS011;24929;51.982;4.664;2023-01-13T00:10:52;16.33;;;3.97;;
39208;SDS011;24929;51.982;4.664;2023-01-13T00:13:17;26.08;;;5.32;;
39208;SDS011;24929;51.982;4.664;2023-01-13T00:18:25;17.10;;;4.65;;
39208;SDS011;24929;51.982;4.664;2023-01-13T00:21:01;26.83;;;5.20;;
39208;SDS011;24929;51.982;4.664;2023-01-13T00:23:28;15.75;;;4.97;;
39208;SDS011;24929;51.982;4.664;2023-01-13T00:25:59;27.40;;;5.68;;
39208;SDS011;24929;51.982;4.664;2023-01-13T00:28:26;23.00;;;5.07;;
39208;SDS011;24929;51.982;4.664;2023-01-13T00:30:52;32.80;;;5.55;;
39208;SDS011;24929;51.982;4.664;2023-01-13T00:33:20;17.33;;;5.03;;
39208;SDS011;24929;51.982;4.664;2023-01-13T00:35:53;22.88;;;6.28;;
39208;SDS011;24929;51.982;4.664;2023-01-13T00:38:22;16.65;;;5.13;;
39208;SDS011;24929;51.982;4.664;2023-01-13T00:40:57;17.45;;;4.85;;
39208;SDS011;24929;51.982;4.664;2023-01-13T00:43:24;21.30;;;5.18;;
39208;SDS011;24929;51.982;4.664;2023-01-13T00:45:51;27.30;;;6.72;;
39208;SDS011;24929;51.982;4.664;2023-01-13T00:48:17;27.30;;;7.20;;
39208;SDS011;24929;51.982;4.664;2023-01-13T00:50:53;31.23;;;6.40;;
39208;SDS011;24929;51.982;4.664;2023-01-13T00:53:22;27.00;;;6.20;;
39208;SDS011;24929;51.982;4.664;2023-01-13T00:55:48;13.55;;;3.22;;
39208;SDS011;24929;51.982;4.664;2023-01-13T00:58:13;34.53;;;4.38;;
39208;SDS011;24929;51.982;4.664;2023-01-13T01:00:39;14.82;;;5.28;;
39208;SDS011;24929;51.982;4.664;2023-01-13T01:03:06;23.38;;;5.93;;
39208;SDS011;24929;51.982;4.664;2023-01-13T01:05:34;18.23;;;4.28;;
39208;SDS011;24929;51.982;4.664;2023-01-13T01:07:59;21.23;;;5.75;;
39208;SDS011;24929;51.982;4.664;2023-01-13T01:10:25;15.02;;;3.70;;
39208;SDS011;24929;51.982;4.664;2023-01-13T01:12:50;21.67;;;5.57;;
39208;SDS011;24929;51.982;4.664;2023-01-13T01:15:16;26.08;;;4.85;;
39208;SDS011;24929;51.982;4.664;2023-01-13T01:17:41;18.80;;;3.95;;
39208;SDS011;24929;51.982;4.664;2023-01-13T01:20:07;20.55;;;5.35;;
39208;SDS011;24929;51.982;4.664;2023-01-13T01:22:33;22.60;;;6.78;;
39208;SDS011;24929;51.982;4.664;2023-01-13T01:24:58;18.25;;;4.65;;
39208;SDS011;24929;51.982;4.664;2023-01-13T01:27:24;25.75;;;5.78;;
39208;SDS011;24929;51.982;4.664;2023-01-13T01:29:49;16.80;;;4.03;;
39208;SDS011;24929;51.982;4.664;2023-01-13T01:32:15;33.00;;;5.05;;
39208;SDS011;24929;51.982;4.664;2023-01-13T01:34:40;17.63;;;4.50;;
39208;SDS011;24929;51.982;4.664;2023-01-13T01:37:05;24.80;;;6.15;;
39208;SDS011;24929;51.982;4.664;2023-01-13T01:39:31;28.17;;;5.78;;
39208;SDS011;24929;51.982;4.664;2023-01-13T01:41:56;19.55;;;4.47;;
39208;SDS011;24929;51.982;4.664;2023-01-13T01:47:05;13.65;;;4.20;;
39208;SDS011;24929;51.982;4.664;2023-01-13T01:49:32;17.50;;;4.90;;
39208;SDS011;24929;51.982;4.664;2023-01-13T01:54:30;38.15;;;6.07;;
39208;SDS011;24929;51.982;4.664;2023-01-13T01:57:02;22.35;;;5.75;;
39208;SDS011;24929;51.982;4.664;2023-01-13T01:59:28;27.85;;;6.13;;
39208;SDS011;24929;51.982;4.664;2023-01-13T02:01:56;22.95;;;4.38;;
39208;SDS011;24929;51.982;4.664;2023-01-13T02:04:22;15.70;;;4.30;;
39208;SDS011;24929;51.982;4.664;2023-01-13T02:06:52;22.38;;;4.82;;
39208;SDS011;24929;51.982;4.664;2023-01-13T02:09:17;27.92;;;5.30;;
39208;SDS011;24929;51.982;4.664;2023-01-13T02:11:43;23.90;;;6.20;;
39208;SDS011;24929;51.982;4.664;2023-01-13T02:14:27;14.93;;;4.13;;
39208;SDS011;24929;51.982;4.664;2023-01-13T02:17:02;21.70;;;4.50;;
39208;SDS011;24929;51.982;4.664;2023-01-13T02:28:31;21.48;;;5.53;;
39208;SDS011;24929;51.982;4.664;2023-01-13T02:31:49;23.40;;;5.40;;
39208;SDS011;24929;51.982;4.664;2023-01-13T02:34:37;25.63;;;5.57;;
39208;SDS011;24929;51.982;4.664;2023-01-13T02:37:17;25.23;;;5.95;;
39208;SDS011;24929;51.982;4.664;2023-01-13T02:39:56;16.55;;;4.35;;
39208;SDS011;24929;51.982;4.664;2023-01-13T02:42:35;20.77;;;5.15;;
39208;SDS011;24929;51.982;4.664;2023-01-13T02:45:36;16.30;;;4.18;;
39208;SDS011;24929;51.982;4.664;2023-01-13T02:48:07;13.02;;;3.95;;
39208;SDS011;24929;51.982;4.664;2023-01-13T02:50:37;15.23;;;3.78;;
39208;SDS011;24929;51.982;4.664;2023-01-13T02:53:19;19.45;;;5.68;;
39208;SDS011;24929;51.982;4.664;2023-01-13T02:55:51;18.33;;;3.72;;
39208;SDS011;24929;51.982;4.664;2023-01-13T02:58:21;20.33;;;6.13;;
39208;SDS011;24929;51.982;4.664;2023-01-13T03:00:50;13.52;;;4.30;;
39208;SDS011;24929;51.982;4.664;2023-01-13T03:03:16;28.50;;;6.63;;
39208;SDS011;24929;51.982;4.664;2023-01-13T03:05:42;24.20;;;6.57;;
39208;SDS011;24929;51.982;4.664;2023-01-13T03:11:09;15.38;;;3.55;;
39208;SDS011;24929;51.982;4.664;2023-01-13T03:21:34;9.50;;;3.28;;
39208;SDS011;24929;51.982;4.664;2023-01-13T03:24:43;8.13;;;3.67;;
39208;SDS011;24929;51.982;4.664;2023-01-13T03:27:21;10.15;;;3.40;;
39208;SDS011;24929;51.982;4.664;2023-01-13T03:30:00;19.08;;;2.63;;
39208;SDS011;24929;51.982;4.664;2023-01-13T03:32:44;17.00;;;3.47;;
39208;SDS011;24929;51.982;4.664;2023-01-13T03:35:22;20.27;;;3.72;;
39208;SDS011;24929;51.982;4.664;2023-01-13T03:37:54;18.65;;;4.93;;
39208;SDS011;24929;51.982;4.664;2023-01-13T03:40:28;17.95;;;3.08;;
39208;SDS011;24929;51.982;4.664;2023-01-13T03:43:02;15.27;;;3.60;;
39208;SDS011;24929;51.982;4.664;2023-01-13T03:46:03;10.32;;;3.95;;
39208;SDS011;24929;51.982;4.664;2023-01-13T03:48:34;15.88;;;3.25;;
39208;SDS011;24929;51.982;4.664;2023-01-13T03:51:04;4.43;;;2.15;;
39208;SDS011;24929;51.982;4.664;2023-01-13T03:53:36;13.75;;;2.58;;
39208;SDS011;24929;51.982;4.664;2023-01-13T03:58:34;8.93;;;2.58;;
39208;SDS011;24929;51.982;4.664;2023-01-13T04:03:47;12.25;;;3.88;;
39208;SDS011;24929;51.982;4.664;2023-01-13T04:06:30;10.93;;;2.58;;
39208;SDS011;24929;51.982;4.664;2023-01-13T04:09:18;11.02;;;2.83;;
39208;SDS011;24929;51.982;4.664;2023-01-13T04:11:54;13.18;;;2.95;;
39208;SDS011;24929;51.982;4.664;2023-01-13T04:14:27;18.52;;;4.28;;
39208;SDS011;24929;51.982;4.664;2023-01-13T04:16:53;19.63;;;3.33;;
39208;SDS011;24929;51.982;4.664;2023-01-13T04:19:19;7.78;;;1.42;;
39208;SDS011;24929;51.982;4.664;2023-01-13T04:21:45;6.05;;;2.30;;
39208;SDS011;24929;51.982;4.664;2023-01-13T04:24:10;4.95;;;1.27;;
39208;SDS011;24929;51.982;4.664;2023-01-13T04:26:36;8.85;;;2.08;;
39208;SDS011;24929;51.982;4.664;2023-01-13T04:29:01;8.90;;;2.13;;
39208;SDS011;24929;51.982;4.664;2023-01-13T04:31:26;8.48;;;1.95;;
39208;SDS011;24929;51.982;4.664;2023-01-13T04:33:52;11.88;;;1.95;;
39208;SDS011;24929;51.982;4.664;2023-01-13T04:36:17;18.60;;;3.47;;
39208;SDS011;24929;51.982;4.664;2023-01-13T04:38:43;4.60;;;1.13;;
39208;SDS011;24929;51.982;4.664;2023-01-13T04:41:09;2.92;;;1.23;;
39208;SDS011;24929;51.982;4.664;2023-01-13T04:43:34;11.23;;;2.55;;
39208;SDS011;24929;51.982;4.664;2023-01-13T04:46:00;16.33;;;3.70;;
39208;SDS011;24929;51.982;4.664;2023-01-13T04:48:25;15.48;;;1.92;;
39208;SDS011;24929;51.982;4.664;2023-01-13T04:50:50;4.85;;;1.45;;
39208;SDS011;24929;51.982;4.664;2023-01-13T04:53:16;9.13;;;2.42;;
39208;SDS011;24929;51.982;4.664;2023-01-13T04:55:41;14.43;;;2.65;;
39208;SDS011;24929;51.982;4.664;2023-01-13T04:58:08;9.63;;;2.45;;
39208;SDS011;24929;51.982;4.664;2023-01-13T05:00:34;11.88;;;1.95;;
39208;SDS011;24929;51.982;4.664;2023-01-13T05:03:01;10.57;;;2.55;;
39208;SDS011;24929;51.982;4.664;2023-01-13T05:05:27;12.75;;;2.88;;
39208;SDS011;24929;51.982;4.664;2023-01-13T05:07:53;14.82;;;3.50;;
39208;SDS011;24929;51.982;4.664;2023-01-13T05:10:19;12.70;;;1.75;;
39208;SDS011;24929;51.982;4.664;2023-01-13T05:12:44;6.85;;;1.75;;
39208;SDS011;24929;51.982;4.664;2023-01-13T05:15:28;6.70;;;2.50;;
39208;SDS011;24929;51.982;4.664;2023-01-13T05:18:12;13.80;;;3.10;;
39208;SDS011;24929;51.982;4.664;2023-01-13T05:20:38;9.48;;;2.67;;
39208;SDS011;24929;51.982;4.664;2023-01-13T05:23:03;8.35;;;2.42;;
39208;SDS011;24929;51.982;4.664;2023-01-13T05:25:47;13.43;;;2.97;;
39208;SDS011;24929;51.982;4.664;2023-01-13T05:28:13;7.95;;;2.55;;
39208;SDS011;24929;51.982;4.664;2023-01-13T05:30:39;12.25;;;2.33;;
39208;SDS011;24929;51.982;4.664;2023-01-13T05:33:10;10.07;;;2.75;;
39208;SDS011;24929;51.982;4.664;2023-01-13T05:35:40;11.98;;;2.55;;
39208;SDS011;24929;51.982;4.664;2023-01-13T05:38:07;15.68;;;3.47;;
39208;SDS011;24929;51.982;4.664;2023-01-13T05:40:32;4.47;;;1.15;;
39208;SDS011;24929;51.982;4.664;2023-01-13T05:43:17;14.18;;;3.55;;
39208;SDS011;24929;51.982;4.664;2023-01-13T05:45:44;7.18;;;1.85;;
39208;SDS011;24929;51.982;4.664;2023-01-13T05:48:10;8.60;;;2.08;;
39208;SDS011;24929;51.982;4.664;2023-01-13T05:50:36;10.45;;;2.80;;
39208;SDS011;24929;51.982;4.664;2023-01-13T05:53:01;15.15;;;3.25;;
39208;SDS011;24929;51.982;4.664;2023-01-13T05:55:27;9.75;;;2.55;;
39208;SDS011;24929;51.982;4.664;2023-01-13T05:57:52;9.88;;;2.78;;
39208;SDS011;24929;51.982;4.664;2023-01-13T06:00:17;14.93;;;3.25;;
39208;SDS011;24929;51.982;4.664;2023-01-13T06:02:43;17.40;;;3.53;;
39208;SDS011;24929;51.982;4.664;2023-01-13T06:05:09;4.40;;;1.13;;
39208;SDS011;24929;51.982;4.664;2023-01-13T06:07:34;13.55;;;3.60;;
39208;SDS011;24929;51.982;4.664;2023-01-13T06:09:59;16.80;;;2.97;;
39208;SDS011;24929;51.982;4.664;2023-01-13T06:12:25;10.15;;;2.55;;
39208;SDS011;24929;51.982;4.664;2023-01-13T06:14:50;15.02;;;2.78;;
39208;SDS011;24929;51.982;4.664;2023-01-13T06:17:15;12.48;;;3.80;;
39208;SDS011;24929;51.982;4.664;2023-01-13T06:19:41;12.30;;;2.33;;
39208;SDS011;24929;51.982;4.664;2023-01-13T06:22:09;6.15;;;2.72;;
39208;SDS011;24929;51.982;4.664;2023-01-13T06:25:12;17.83;;;2.72;;
39208;SDS011;24929;51.982;4.664;2023-01-13T06:27:39;14.80;;;3.53;;
39208;SDS011;24929;51.982;4.664;2023-01-13T06:30:05;11.43;;;2.85;;
39208;SDS011;24929;51.982;4.664;2023-01-13T06:32:32;12.80;;;3.90;;
39208;SDS011;24929;51.982;4.664;2023-01-13T06:35:04;10.00;;;2.42;;
39208;SDS011;24929;51.982;4.664;2023-01-13T06:37:33;13.35;;;3.22;;
39208;SDS011;24929;51.982;4.664;2023-01-13T06:40:00;14.85;;;3.17;;
39208;SDS011;24929;51.982;4.664;2023-01-13T06:42:28;16.02;;;2.65;;
39208;SDS011;24929;51.982;4.664;2023-01-13T06:45:15;13.27;;;3.85;;
39208;SDS011;24929;51.982;4.664;2023-01-13T06:47:41;12.15;;;3.33;;
39208;SDS011;24929;51.982;4.664;2023-01-13T06:50:07;11.68;;;2.92;;
39208;SDS011;24929;51.982;4.664;2023-01-13T06:52:33;11.80;;;2.55;;
39208;SDS011;24929;51.982;4.664;2023-01-13T06:54:58;12.38;;;4.10;;
39208;SDS011;24929;51.982;4.664;2023-01-13T06:57:24;7.28;;;2.13;;
39208;SDS011;24929;51.982;4.664;2023-01-13T06:59:49;8.35;;;2.53;;
39208;SDS011;24929;51.982;4.664;2023-01-13T07:02:14;10.50;;;2.75;;
39208;SDS011;24929;51.982;4.664;2023-01-13T07:04:40;15.68;;;3.70;;
39208;SDS011;24929;51.982;4.664;2023-01-13T07:07:05;14.65;;;4.53;;
39208;SDS011;24929;51.982;4.664;2023-01-13T07:09:32;14.90;;;3.85;;
39208;SDS011;24929;51.982;4.664;2023-01-13T07:11:57;12.20;;;2.53;;
39208;SDS011;24929;51.982;4.664;2023-01-13T07:14:23;12.75;;;2.28;;
39208;SDS011;24929;51.982;4.664;2023-01-13T07:17:06;13.98;;;2.70;;
39208;SDS011;24929;51.982;4.664;2023-01-13T07:19:32;10.52;;;3.63;;
39208;SDS011;24929;51.982;4.664;2023-01-13T07:21:57;10.05;;;3.33;;
39208;SDS011;24929;51.982;4.664;2023-01-13T07:27:44;12.90;;;3.08;;
39208;SDS011;24929;51.982;4.664;2023-01-13T07:30:10;15.18;;;3.03;;
39208;SDS011;24929;51.982;4.664;2023-01-13T07:32:35;8.15;;;2.60;;
39208;SDS011;24929;51.982;4.664;2023-01-13T07:35:01;14.75;;;3.72;;
39208;SDS011;24929;51.982;4.664;2023-01-13T07:37:32;11.63;;;3.22;;
39208;SDS011;24929;51.982;4.664;2023-01-13T07:39:59;13.77;;;3.22;;
39208;SDS011;24929;51.982;4.664;2023-01-13T07:42:25;14.70;;;3.95;;
39208;SDS011;24929;51.982;4.664;2023-01-13T07:50:34;8.15;;;2.33;;
39208;SDS011;24929;51.982;4.664;2023-01-13T07:52:59;12.98;;;2.67;;
39208;SDS011;24929;51.982;4.664;2023-01-13T07:55:25;8.25;;;2.95;;
39208;SDS011;24929;51.982;4.664;2023-01-13T07:57:50;11.52;;;3.17;;
39208;SDS011;24929;51.982;4.664;2023-01-13T08:00:15;12.43;;;3.60;;
39208;SDS011;24929;51.982;4.664;2023-01-13T08:02:41;9.80;;;3.38;;
39208;SDS011;24929;51.982;4.664;2023-01-13T08:05:07;11.10;;;2.55;;
39208;SDS011;24929;51.982;4.664;2023-01-13T08:07:33;16.35;;;3.33;;
39208;SDS011;24929;51.982;4.664;2023-01-13T08:09:58;14.43;;;3.03;;
39208;SDS011;24929;51.982;4.664;2023-01-13T08:12:24;11.27;;;3.28;;
39208;SDS011;24929;51.982;4.664;2023-01-13T08:15:07;7.40;;;2.42;;
39208;SDS011;24929;51.982;4.664;2023-01-13T08:17:34;10.55;;;2.35;;
39208;SDS011;24929;51.982;4.664;2023-01-13T08:20:00;11.52;;;2.75;;
39208;SDS011;24929;51.982;4.664;2023-01-13T08:22:25;8.02;;;2.33;;
39208;SDS011;24929;51.982;4.664;2023-01-13T08:24:51;20.33;;;4.65;;
39208;SDS011;24929;51.982;4.664;2023-01-13T08:27:16;16.73;;;3.15;;
39208;SDS011;24929;51.982;4.664;2023-01-13T08:29:43;10.98;;;2.80;;
39208;SDS011;24929;51.982;4.664;2023-01-13T08:32:08;9.45;;;2.38;;
39208;SDS011;24929;51.982;4.664;2023-01-13T08:34:34;16.00;;;4.10;;
39208;SDS011;24929;51.982;4.664;2023-01-13T08:37:00;16.92;;;3.53;;
39208;SDS011;24929;51.982;4.664;2023-01-13T08:39:25;15.35;;;2.17;;
39208;SDS011;24929;51.982;4.664;2023-01-13T08:41:51;13.38;;;3.38;;
39208;SDS011;24929;51.982;4.664;2023-01-13T08:44:19;11.73;;;3.15;;
39208;SDS011;24929;51.982;4.664;2023-01-13T08:46:44;11.18;;;1.83;;
39208;SDS011;24929;51.982;4.664;2023-01-13T08:49:10;17.83;;;3.97;;
39208;SDS011;24929;51.982;4.664;2023-01-13T08:51:36;8.60;;;3.08;;
39208;SDS011;24929;51.982;4.664;2023-01-13T08:54:01;11.43;;;3.00;;
39208;SDS011;24929;51.982;4.664;2023-01-13T08:56:30;20.17;;;5.05;;
39208;SDS011;24929;51.982;4.664;2023-01-13T08:58:57;11.68;;;2.75;;
39208;SDS011;24929;51.982;4.664;2023-01-13T09:01:22;11.63;;;2.97;;
39208;SDS011;24929;51.982;4.664;2023-01-13T09:03:49;13.63;;;3.33;;
39208;SDS011;24929;51.982;4.664;2023-01-13T09:06:14;11.15;;;3.72;;
39208;SDS011;24929;51.982;4.664;2023-01-13T09:08:40;14.38;;;2.08;;
39208;SDS011;24929;51.982;4.664;2023-01-13T09:11:05;9.77;;;3.22;;
39208;SDS011;24929;51.982;4.664;2023-01-13T09:14:06;13.55;;;3.30;;
39208;SDS011;24929;51.982;4.664;2023-01-13T09:16:31;11.40;;;3.08;;
39208;SDS011;24929;51.982;4.664;2023-01-13T09:18:57;12.35;;;3.28;;
39208;SDS011;24929;51.982;4.664;2023-01-13T09:21:22;14.38;;;3.15;;
39208;SDS011;24929;51.982;4.664;2023-01-13T09:23:48;26.70;;;4.55;;
39208;SDS011;24929;51.982;4.664;2023-01-13T09:26:14;20.65;;;4.57;;
39208;SDS011;24929;51.982;4.664;2023-01-13T09:28:43;14.65;;;2.97;;
39208;SDS011;24929;51.982;4.664;2023-01-13T09:31:09;18.90;;;4.47;;
39208;SDS011;24929;51.982;4.664;2023-01-13T09:33:34;15.05;;;2.40;;
39208;SDS011;24929;51.982;4.664;2023-01-13T09:36:18;10.38;;;2.78;;
39208;SDS011;24929;51.982;4.664;2023-01-13T09:38:44;18.27;;;2.80;;
39208;SDS011;24929;51.982;4.664;2023-01-13T09:41:19;11.88;;;2.83;;
39208;SDS011;24929;51.982;4.664;2023-01-13T09:44:05;17.08;;;2.63;;
39208;SDS011;24929;51.982;4.664;2023-01-13T09:46:41;11.18;;;3.03;;
39208;SDS011;24929;51.982;4.664;2023-01-13T09:51:56;22.25;;;4.55;;
39208;SDS011;24929;51.982;4.664;2023-01-13T09:56:52;7.95;;;2.78;;
39208;SDS011;24929;51.982;4.664;2023-01-13T09:59:17;12.02;;;3.90;;
39208;SDS011;24929;51.982;4.664;2023-01-13T10:01:52;15.88;;;3.63;;
39208;SDS011;24929;51.982;4.664;2023-01-13T10:04:23;14.68;;;3.15;;
39208;SDS011;24929;51.982;4.664;2023-01-13T10:06:57;19.15;;;4.40;;
39208;SDS011;24929;51.982;4.664;2023-01-13T10:09:26;10.20;;;2.20;;
39208;SDS011;24929;51.982;4.664;2023-01-13T10:11:58;14.20;;;3.77;;
39208;SDS011;24929;51.982;4.664;2023-01-13T10:14:50;7.70;;;2.72;;
39208;SDS011;24929;51.982;4.664;2023-01-13T10:17:27;14.15;;;2.88;;
39208;SDS011;24929;51.982;4.664;2023-01-13T10:20:04;14.40;;;2.90;;
39208;SDS011;24929;51.982;4.664;2023-01-13T10:28:19;15.57;;;2.88;;
39208;SDS011;24929;51.982;4.664;2023-01-13T10:30:47;17.17;;;3.60;;
39208;SDS011;24929;51.982;4.664;2023-01-13T10:38:26;14.45;;;3.20;;
39208;SDS011;24929;51.982;4.664;2023-01-13T10:41:05;3.30;;;1.73;;
39208;SDS011;24929;51.982;4.664;2023-01-13T10:43:33;9.52;;;3.63;;
39208;SDS011;24929;51.982;4.664;2023-01-13T10:56:31;9.77;;;2.33;;
39208;SDS011;24929;51.982;4.664;2023-01-13T11:07:27;13.68;;;2.85;;
39208;SDS011;24929;51.982;4.664;2023-01-13T11:12:34;7.22;;;1.92;;
39208;SDS011;24929;51.982;4.664;2023-01-13T11:15:08;5.15;;;1.45;;
39208;SDS011;24929;51.982;4.664;2023-01-13T11:17:41;15.20;;;3.35;;
39208;SDS011;24929;51.982;4.664;2023-01-13T11:22:45;12.85;;;2.78;;
39208;SDS011;24929;51.982;4.664;2023-01-13T11:25:36;19.85;;;2.88;;
39208;SDS011;24929;51.982;4.664;2023-01-13T11:31:10;15.15;;;1.95;;
39208;SDS011;24929;51.982;4.664;2023-01-13T11:33:50;16.35;;;2.85;;
39208;SDS011;24929;51.982;4.664;2023-01-13T11:36:22;17.45;;;2.60;;
39208;SDS011;24929;51.982;4.664;2023-01-13T11:38:53;6.88;;;2.42;;
39208;SDS011;24929;51.982;4.664;2023-01-13T11:41:27;7.28;;;3.08;;
39208;SDS011;24929;51.982;4.664;2023-01-13T11:46:47;9.82;;;3.33;;
39208;SDS011;24929;51.982;4.664;2023-01-13T11:49:20;8.70;;;2.08;;
39208;SDS011;24929;51.982;4.664;2023-01-13T11:52:41;5.70;;;2.40;;
39208;SDS011;24929;51.982;4.664;2023-01-13T11:55:34;11.57;;;3.03;;
39208;SDS011;24929;51.982;4.664;2023-01-13T11:57:41;7.60;;;1.55;;
39208;SDS011;24929;51.982;4.664;2023-01-13T12:03:26;13.98;;;3.28;;
39208;SDS011;24929;51.982;4.664;2023-01-13T12:08:49;10.70;;;2.22;;
39208;SDS011;24929;51.982;4.664;2023-01-13T12:20:07;4.88;;;2.65;;
39208;SDS011;24929;51.982;4.664;2023-01-13T12:23:00;10.82;;;2.53;;
39208;SDS011;24929;51.982;4.664;2023-01-13T12:25:33;7.32;;;2.13;;
39208;SDS011;24929;51.982;4.664;2023-01-13T12:28:18;5.32;;;2.55;;
39208;SDS011;24929;51.982;4.664;2023-01-13T12:30:51;8.30;;;2.42;;
39208;SDS011;24929;51.982;4.664;2023-01-13T12:36:19;8.60;;;2.53;;
39208;SDS011;24929;51.982;4.664;2023-01-13T12:41:44;14.65;;;2.25;;
39208;SDS011;24929;51.982;4.664;2023-01-13T12:47:42;17.48;;;3.13;;
39208;SDS011;24929;51.982;4.664;2023-01-13T12:52:54;9.25;;;2.70;;
39208;SDS011;24929;51.982;4.664;2023-01-13T12:55:24;4.22;;;1.92;;
39208;SDS011;24929;51.982;4.664;2023-01-13T13:00:34;11.35;;;1.65;;
39208;SDS011;24929;51.982;4.664;2023-01-13T13:05:40;5.85;;;2.45;;
39208;SDS011;24929;51.982;4.664;2023-01-13T13:08:39;5.03;;;2.13;;
39208;SDS011;24929;51.982;4.664;2023-01-13T13:13:57;6.15;;;2.08;;
39208;SDS011;24929;51.982;4.664;2023-01-13T13:19:39;6.00;;;2.08;;
39208;SDS011;24929;51.982;4.664;2023-01-13T13:25:12;9.25;;;1.88;;
39208;SDS011;24929;51.982;4.664;2023-01-13T13:27:38;8.60;;;2.42;;
39208;SDS011;24929;51.982;4.664;2023-01-13T13:41:13;4.75;;;1.65;;
39208;SDS011;24929;51.982;4.664;2023-01-13T13:44:02;8.20;;;2.17;;
39208;SDS011;24929;51.982;4.664;2023-01-13T13:46:56;7.68;;;2.22;;
39208;SDS011;24929;51.982;4.664;2023-01-13T13:52:15;7.10;;;1.45;;
39208;SDS011;24929;51.982;4.664;2023-01-13T13:54:46;9.98;;;2.50;;
39208;SDS011;24929;51.982;4.664;2023-01-13T13:57:16;9.52;;;2.88;;
39208;SDS011;24929;51.982;4.664;2023-01-13T13:59:44;3.92;;;1.52;;
39208;SDS011;24929;51.982;4.664;2023-01-13T14:02:16;5.70;;;2.15;;
39208;SDS011;24929;51.982;4.664;2023-01-13T14:04:47;7.72;;;2.47;;
39208;SDS011;24929;51.982;4.664;2023-01-13T14:07:17;5.05;;;1.38;;
39208;SDS011;24929;51.982;4.664;2023-01-13T14:09:45;5.30;;;1.73;;
39208;SDS011;24929;51.982;4.664;2023-01-13T14:12:23;8.02;;;2.55;;
39208;SDS011;24929;51.982;4.664;2023-01-13T14:14:50;10.98;;;2.00;;
39208;SDS011;24929;51.982;4.664;2023-01-13T14:17:23;9.75;;;2.28;;
39208;SDS011;24929;51.982;4.664;2023-01-13T14:20:00;8.68;;;2.72;;
39208;SDS011;24929;51.982;4.664;2023-01-13T14:22:32;15.75;;;2.90;;
39208;SDS011;24929;51.982;4.664;2023-01-13T14:24:58;11.13;;;3.55;;
39208;SDS011;24929;51.982;4.664;2023-01-13T14:27:25;5.93;;;2.03;;
39208;SDS011;24929;51.982;4.664;2023-01-13T14:29:53;9.27;;;2.33;;
39208;SDS011;24929;51.982;4.664;2023-01-13T14:32:21;10.15;;;1.85;;
39208;SDS011;24929;51.982;4.664;2023-01-13T14:34:53;13.65;;;1.75;;
39208;SDS011;24929;51.982;4.664;2023-01-13T14:39:55;13.55;;;1.55;;
39208;SDS011;24929;51.982;4.664;2023-01-13T14:42:21;10.57;;;2.17;;
39208;SDS011;24929;51.982;4.664;2023-01-13T14:44:47;13.27;;;2.60;;
39208;SDS011;24929;51.982;4.664;2023-01-13T14:49:40;7.38;;;1.50;;
39208;SDS011;24929;51.982;4.664;2023-01-13T14:52:22;7.53;;;2.35;;
39208;SDS011;24929;51.982;4.664;2023-01-13T14:54:49;7.55;;;3.35;;
39208;SDS011;24929;51.982;4.664;2023-01-13T14:57:39;6.90;;;1.98;;
39208;SDS011;24929;51.982;4.664;2023-01-13T15:02:49;22.00;;;2.42;;
39208;SDS011;24929;51.982;4.664;2023-01-13T15:08:05;5.22;;;2.47;;
39208;SDS011;24929;51.982;4.664;2023-01-13T15:10:36;2.95;;;1.63;;
39208;SDS011;24929;51.982;4.664;2023-01-13T15:13:30;22.02;;;3.83;;
39208;SDS011;24929;51.982;4.664;2023-01-13T15:16:18;10.98;;;2.63;;
39208;SDS011;24929;51.982;4.664;2023-01-13T15:18:46;10.73;;;2.95;;
39208;SDS011;24929;51.982;4.664;2023-01-13T15:21:12;11.13;;;3.92;;
39208;SDS011;24929;51.982;4.664;2023-01-13T15:23:39;11.73;;;2.67;;
39208;SDS011;24929;51.982;4.664;2023-01-13T15:26:39;15.85;;;2.72;;
39208;SDS011;24929;51.982;4.664;2023-01-13T15:28:57;7.15;;;1.60;;
39208;SDS011;24929;51.982;4.664;2023-01-13T15:31:25;12.82;;;3.53;;
39208;SDS011;24929;51.982;4.664;2023-01-13T15:33:51;11.38;;;3.17;;
39208;SDS011;24929;51.982;4.664;2023-01-13T15:36:18;10.07;;;2.45;;
39208;SDS011;24929;51.982;4.664;2023-01-13T15:38:44;19.83;;;2.75;;
39208;SDS011;24929;51.982;4.664;2023-01-13T15:41:10;9.07;;;2.60;;
39208;SDS011;24929;51.982;4.664;2023-01-13T15:43:35;15.63;;;2.75;;
39208;SDS011;24929;51.982;4.664;2023-01-13T15:46:19;5.93;;;2.30;;
39208;SDS011;24929;51.982;4.664;2023-01-13T15:49:07;15.40;;;2.80;;
39208;SDS011;24929;51.982;4.664;2023-01-13T15:51:43;9.60;;;2.50;;
39208;SDS011;24929;51.982;4.664;2023-01-13T15:54:08;9.95;;;2.75;;
39208;SDS011;24929;51.982;4.664;2023-01-13T15:56:34;11.32;;;2.83;;
39208;SDS011;24929;51.982;4.664;2023-01-13T15:59:01;12.73;;;2.28;;
39208;SDS011;24929;51.982;4.664;2023-01-13T16:01:27;16.50;;;2.92;;
39208;SDS011;24929;51.982;4.664;2023-01-13T16:03:52;5.85;;;1.73;;
39208;SDS011;24929;51.982;4.664;2023-01-13T16:06:20;12.48;;;2.58;;
39208;SDS011;24929;51.982;4.664;2023-01-13T16:08:51;6.60;;;2.30;;
39208;SDS011;24929;51.982;4.664;2023-01-13T16:11:17;11.77;;;2.85;;
39208;SDS011;24929;51.982;4.664;2023-01-13T16:13:42;11.40;;;2.47;;
39208;SDS011;24929;51.982;4.664;2023-01-13T16:16:18;7.07;;;2.05;;
39208;SDS011;24929;51.982;4.664;2023-01-13T16:18:46;12.05;;;2.78;;
39208;SDS011;24929;51.982;4.664;2023-01-13T16:21:12;13.35;;;3.13;;
39208;SDS011;24929;51.982;4.664;2023-01-13T16:23:38;12.73;;;2.42;;
39208;SDS011;24929;51.982;4.664;2023-01-13T16:32:55;9.20;;;2.00;;
39208;SDS011;24929;51.982;4.664;2023-01-13T16:35:21;9.93;;;1.98;;
39208;SDS011;24929;51.982;4.664;2023-01-13T16:37:47;5.35;;;2.15;;
39208;SDS011;24929;51.982;4.664;2023-01-13T16:40:26;10.35;;;2.20;;
39208;SDS011;24929;51.982;4.664;2023-01-13T16:42:57;6.45;;;2.08;;
39208;SDS011;24929;51.982;4.664;2023-01-13T16:45:28;5.13;;;1.95;;
39208;SDS011;24929;51.982;4.664;2023-01-13T16:47:57;5.95;;;1.35;;
39208;SDS011;24929;51.982;4.664;2023-01-13T16:50:34;12.88;;;2.10;;
39208;SDS011;24929;51.982;4.664;2023-01-13T16:53:00;11.45;;;2.03;;
39208;SDS011;24929;51.982;4.664;2023-01-13T16:55:26;5.35;;;1.60;;
39208;SDS011;24929;51.982;4.664;2023-01-13T16:57:51;6.10;;;1.70;;
39208;SDS011;24929;51.982;4.664;2023-01-13T17:00:17;4.68;;;1.52;;
39208;SDS011;24929;51.982;4.664;2023-01-13T17:02:43;6.15;;;1.35;;
39208;SDS011;24929;51.982;4.664;2023-01-13T17:05:09;11.50;;;2.42;;
39208;SDS011;24929;51.982;4.664;2023-01-13T17:07:36;6.30;;;2.33;;
39208;SDS011;24929;51.982;4.664;2023-01-13T17:10:02;5.97;;;1.77;;
39208;SDS011;24929;51.982;4.664;2023-01-13T17:12:28;5.28;;;2.15;;
39208;SDS011;24929;51.982;4.664;2023-01-13T17:14:53;9.70;;;1.95;;
39208;SDS011;24929;51.982;4.664;2023-01-13T17:17:23;2.80;;;1.20;;
39208;SDS011;24929;51.982;4.664;2023-01-13T17:19:51;4.07;;;1.88;;
39208;SDS011;24929;51.982;4.664;2023-01-13T17:22:17;14.27;;;2.35;;
39208;SDS011;24929;51.982;4.664;2023-01-13T17:24:44;9.07;;;2.20;;
39208;SDS011;24929;51.982;4.664;2023-01-13T17:27:09;11.48;;;2.33;;
39208;SDS011;24929;51.982;4.664;2023-01-13T17:29:35;4.10;;;1.60;;
39208;SDS011;24929;51.982;4.664;2023-01-13T17:32:00;8.40;;;1.80;;
39208;SDS011;24929;51.982;4.664;2023-01-13T17:34:25;10.70;;;2.47;;
39208;SDS011;24929;51.982;4.664;2023-01-13T17:36:51;7.03;;;2.45;;